Terminal Aerodrome Forecast
Issued by NWS

Home | Current Version | Previous Version | Text Only | Print | Product List | Glossary On
Versions: 1 2 3 4 5 6 7 8 9 10 11 12 13 14 15 16 17 18 19 20 21 22 23 24 25
000
FTUS43 KICT 221557 AAA
TAFCNU
TAF AMD
KCNU 221557Z 2216/2312 07006KT 3SM -FZDZ BR OVC003
     FM221700 08007KT 6SM BR OVC007
      TEMPO 2217/2220 5SM -RA OVC004
     FM222000 10007KT 5SM -RA OVC005
     FM222300 10005KT 2SM -RA OVC003=

USA.gov is the U.S. government's official web portal to all federal, state and local government web resources and services.